createdAt,value
2022-12-13T00:01:32.248Z,15.27
2022-12-13T00:04:00.025Z,15.83
2022-12-13T00:06:27.493Z,15.40
2022-12-13T00:08:54.294Z,15.57
2022-12-13T00:11:20.986Z,15.68
2022-12-13T00:13:48.217Z,14.45
2022-12-13T00:16:19.572Z,16.17
2022-12-13T00:18:49.855Z,15.57
2022-12-13T00:21:18.001Z,15.70
2022-12-13T00:23:44.848Z,14.27
2022-12-13T00:26:12.909Z,15.45
2022-12-13T00:28:39.572Z,14.98
2022-12-13T00:31:43.257Z,16.50
2022-12-13T00:33:53.742Z,16.27
2022-12-13T00:36:20.484Z,16.20
2022-12-13T00:38:47.134Z,16.67
2022-12-13T00:41:14.831Z,16.92
2022-12-13T00:43:41.947Z,15.80
2022-12-13T00:46:16.212Z,14.57
2022-12-13T00:48:43.156Z,15.50
2022-12-13T00:51:10.895Z,15.98
2022-12-13T00:53:38.030Z,16.38
2022-12-13T00:56:05.364Z,15.88
2022-12-13T00:58:32.006Z,14.95
2022-12-13T01:01:06.803Z,15.10
2022-12-13T01:03:33.531Z,16.63
2022-12-13T01:06:14.820Z,15.73
2022-12-13T01:08:42.283Z,16.35
2022-12-13T01:11:09.241Z,17.17
2022-12-13T01:13:36.410Z,16.75
2022-12-13T01:16:04.290Z,16.02
2022-12-13T01:18:30.962Z,16.50
2022-12-13T01:21:01.415Z,16.25
2022-12-13T01:23:28.455Z,16.75
2022-12-13T01:25:55.402Z,15.70
2022-12-13T01:28:22.029Z,15.80
2022-12-13T01:30:58.302Z,15.80
2022-12-13T01:33:25.578Z,16.27
2022-12-13T01:35:52.390Z,16.65
2022-12-13T01:38:19.065Z,16.77
2022-12-13T01:40:50.326Z,17.67
2022-12-13T01:43:17.701Z,17.83
2022-12-13T01:45:44.532Z,17.02
2022-12-13T01:48:16.637Z,16.25
2022-12-13T01:50:46.646Z,17.63
2022-12-13T01:53:15.378Z,17.33
2022-12-13T01:55:43.553Z,17.45
2022-12-13T01:58:12.254Z,17.70
2022-12-13T02:00:40.902Z,16.80
2022-12-13T02:03:08.162Z,16.20
2022-12-13T02:05:52.611Z,17.13
2022-12-13T02:08:20.146Z,17.95
2022-12-13T02:10:47.524Z,17.17
2022-12-13T02:13:14.183Z,17.75
2022-12-13T02:15:47.360Z,18.13
2022-12-13T02:18:25.226Z,18.27
2022-12-13T02:21:12.139Z,17.83
2022-12-13T02:23:44.883Z,17.52
2022-12-13T02:26:11.758Z,18.20
2022-12-13T02:28:38.426Z,18.10
2022-12-13T02:31:05.270Z,17.20
2022-12-13T02:33:36.888Z,18.52
2022-12-13T02:36:19.473Z,18.40
2022-12-13T02:38:58.029Z,19.27
2022-12-13T02:41:24.667Z,17.75
2022-12-13T02:43:51.380Z,17.90
2022-12-13T02:46:20.144Z,19.77
2022-12-13T02:48:47.506Z,17.98
2022-12-13T02:51:14.460Z,18.55
2022-12-13T02:53:42.234Z,18.67
2022-12-13T02:56:08.892Z,18.42
2022-12-13T02:58:37.774Z,19.08
2022-12-13T03:01:28.696Z,19.33
2022-12-13T03:04:15.191Z,19.85
2022-12-13T03:06:57.933Z,18.85
2022-12-13T03:09:28.290Z,18.85
2022-12-13T03:12:28.807Z,20.00
2022-12-13T03:14:56.208Z,17.65
2022-12-13T03:17:23.404Z,18.90
2022-12-13T03:19:51.822Z,18.45
2022-12-13T03:22:19.677Z,19.35
2022-12-13T03:24:46.421Z,21.55
2022-12-13T03:27:13.836Z,19.75
2022-12-13T03:29:40.454Z,19.45
2022-12-13T03:32:07.090Z,21.20
2022-12-13T03:34:44.644Z,20.42
2022-12-13T03:37:12.345Z,20.30
2022-12-13T03:39:38.958Z,19.35
2022-12-13T03:42:05.638Z,19.05
2022-12-13T03:44:32.360Z,19.67
2022-12-13T03:47:00.721Z,20.15
2022-12-13T03:49:27.627Z,21.77
2022-12-13T03:52:02.386Z,22.45
2022-12-13T03:54:28.997Z,22.00
2022-12-13T03:56:55.685Z,22.25
2022-12-13T03:59:22.354Z,22.52
2022-12-13T04:01:49.035Z,21.08
2022-12-13T04:04:15.719Z,21.85
2022-12-13T04:06:42.501Z,20.42
2022-12-13T04:09:09.418Z,21.90
2022-12-13T04:11:54.750Z,21.55
2022-12-13T04:14:21.604Z,21.90
2022-12-13T04:16:49.128Z,21.90
2022-12-13T04:19:15.783Z,20.58
2022-12-13T04:21:50.093Z,23.35
2022-12-13T04:24:16.720Z,23.52
2022-12-13T04:26:43.325Z,21.77
2022-12-13T04:29:09.987Z,20.50
2022-12-13T04:31:36.660Z,23.02
2022-12-13T04:34:03.367Z,22.73
2022-12-13T04:36:31.818Z,22.60
2022-12-13T04:39:00.608Z,23.55
2022-12-13T04:41:27.631Z,25.33
2022-12-13T04:44:01.358Z,26.38
2022-12-13T04:46:27.959Z,25.85
2022-12-13T04:48:54.575Z,25.35
2022-12-13T04:51:21.293Z,24.95
2022-12-13T04:53:48.009Z,24.20
2022-12-13T04:56:14.613Z,25.17
2022-12-13T04:58:41.234Z,23.77
2022-12-13T05:01:08.471Z,24.60
2022-12-13T05:03:35.339Z,26.27
2022-12-13T05:06:06.312Z,23.73
2022-12-13T05:08:52.899Z,28.30
2022-12-13T05:11:19.964Z,26.87
2022-12-13T05:13:49.790Z,25.93
2022-12-13T05:16:16.426Z,26.40
2022-12-13T05:18:43.089Z,27.67
2022-12-13T05:21:10.828Z,28.13
2022-12-13T05:23:37.602Z,28.03
2022-12-13T05:26:04.763Z,29.00
2022-12-13T05:28:31.648Z,19.63
2022-12-13T05:30:59.730Z,26.50
2022-12-13T05:33:26.524Z,27.40
2022-12-13T05:35:59.162Z,24.30
2022-12-13T05:38:27.730Z,21.70
2022-12-13T05:40:54.353Z,23.47
2022-12-13T05:43:21.438Z,23.97
2022-12-13T05:45:49.331Z,33.73
2022-12-13T05:48:16.207Z,31.90
2022-12-13T05:50:51.824Z,28.73
2022-12-13T05:53:35.346Z,28.13
2022-12-13T05:56:02.457Z,25.07
2022-12-13T05:58:29.389Z,28.33
2022-12-13T06:01:10.165Z,26.03
2022-12-13T06:03:37.013Z,33.23
2022-12-13T06:06:04.605Z,31.03
2022-12-13T06:08:31.783Z,28.67
2022-12-13T06:11:11.709Z,33.03
2022-12-13T06:13:43.695Z,28.20
2022-12-13T06:16:22.952Z,30.33
2022-12-13T06:18:55.936Z,33.73
2022-12-13T06:21:25.925Z,23.47
2022-12-13T06:23:52.545Z,28.07
2022-12-13T06:26:19.106Z,28.03
2022-12-13T06:28:45.873Z,31.47
2022-12-13T06:31:12.602Z,29.73
2022-12-13T06:33:39.359Z,28.30
2022-12-13T06:36:06.329Z,24.83
2022-12-13T06:38:33.035Z,26.53
2022-12-13T06:41:10.864Z,26.13
2022-12-13T06:43:37.887Z,32.00
2022-12-13T06:46:05.483Z,25.50
2022-12-13T06:48:32.273Z,26.27
2022-12-13T06:51:02.744Z,30.17
2022-12-13T06:53:30.074Z,28.37
2022-12-13T06:55:57.078Z,22.20
2022-12-13T06:58:24.159Z,28.53
2022-12-13T07:00:50.932Z,29.80
2022-12-13T07:03:17.552Z,29.23
2022-12-13T07:05:44.292Z,26.33
2022-12-13T07:08:11.003Z,32.10
2022-12-13T07:10:38.914Z,23.23
2022-12-13T07:13:05.602Z,27.87
2022-12-13T07:15:33.339Z,23.47
2022-12-13T07:18:00.005Z,20.90
2022-12-13T07:20:26.735Z,27.53
2022-12-13T07:22:58.839Z,27.47
2022-12-13T07:25:27.487Z,26.10
2022-12-13T07:28:01.068Z,31.57
2022-12-13T07:30:28.660Z,25.80
2022-12-13T07:32:55.308Z,26.40
2022-12-13T07:35:21.947Z,29.37
2022-12-13T07:37:48.571Z,23.67
2022-12-13T07:40:15.257Z,29.43
2022-12-13T07:42:54.417Z,30.40
2022-12-13T07:45:21.640Z,30.73
2022-12-13T07:47:48.321Z,26.80
2022-12-13T07:50:24.935Z,32.67
2022-12-13T07:52:52.669Z,30.13
2022-12-13T07:55:23.113Z,30.17
2022-12-13T07:58:06.924Z,26.13
2022-12-13T08:00:34.878Z,26.73
2022-12-13T08:03:02.206Z,28.53
2022-12-13T08:05:29.267Z,30.33
2022-12-13T08:08:06.758Z,30.57
2022-12-13T08:10:33.541Z,26.03
2022-12-13T08:13:02.924Z,29.00
2022-12-13T08:15:29.872Z,32.13
2022-12-13T08:17:57.136Z,23.37
2022-12-13T08:20:23.805Z,28.97
2022-12-13T08:23:01.861Z,27.03
2022-12-13T08:25:29.778Z,29.77
2022-12-13T08:28:01.782Z,28.73
2022-12-13T08:30:30.505Z,29.10
2022-12-13T08:32:57.782Z,28.67
2022-12-13T08:35:33.466Z,20.47
2022-12-13T08:38:01.062Z,26.30
2022-12-13T08:40:27.929Z,25.97
2022-12-13T08:42:57.718Z,26.90
2022-12-13T08:45:24.437Z,27.47
2022-12-13T08:47:51.174Z,24.93
2022-12-13T08:50:17.847Z,25.83
2022-12-13T08:52:45.086Z,26.43
2022-12-13T08:55:12.798Z,21.83
2022-12-13T08:57:40.836Z,27.07
2022-12-13T09:00:09.118Z,29.53
2022-12-13T09:02:37.833Z,29.53
2022-12-13T09:05:06.069Z,26.33
2022-12-13T09:07:32.852Z,28.77
2022-12-13T09:09:59.508Z,24.33
2022-12-13T09:12:46.162Z,25.10
2022-12-13T09:15:22.519Z,25.47
2022-12-13T09:17:52.367Z,25.33
2022-12-13T09:20:28.705Z,25.77
2022-12-13T09:23:01.848Z,27.17
2022-12-13T09:25:36.672Z,25.03
2022-12-13T09:28:07.953Z,26.77
2022-12-13T09:30:35.258Z,23.53
2022-12-13T09:33:25.562Z,27.87
2022-12-13T09:35:48.811Z,25.60
2022-12-13T09:38:15.978Z,20.87
2022-12-13T09:40:43.611Z,18.80
2022-12-13T09:43:23.701Z,24.00
2022-12-13T09:46:01.322Z,24.77
2022-12-13T09:48:29.119Z,25.23
2022-12-13T09:51:18.167Z,20.93
2022-12-13T09:53:50.424Z,22.73
2022-12-13T09:56:18.609Z,21.20
2022-12-13T09:58:47.875Z,22.23
2022-12-13T10:01:22.236Z,17.17
2022-12-13T10:03:51.105Z,22.67
2022-12-13T10:06:22.936Z,21.47
2022-12-13T10:08:57.640Z,23.83
2022-12-13T10:11:32.473Z,22.63
2022-12-13T10:14:02.094Z,20.07
2022-12-13T10:16:37.357Z,23.83
2022-12-13T10:19:28.368Z,21.10
2022-12-13T10:22:02.321Z,20.10
2022-12-13T10:24:37.259Z,21.67
2022-12-13T10:27:12.043Z,20.70
2022-12-13T10:29:57.138Z,18.77
2022-12-13T10:32:24.016Z,20.07
2022-12-13T10:34:50.643Z,20.67
2022-12-13T10:37:23.199Z,21.03
2022-12-13T10:39:49.899Z,20.57
2022-12-13T10:42:22.964Z,18.77
2022-12-13T10:45:08.198Z,19.60
2022-12-13T10:47:36.457Z,21.67
2022-12-13T10:50:03.343Z,18.60
2022-12-13T10:52:32.079Z,19.70
2022-12-13T10:55:02.282Z,28.13
2022-12-13T10:57:29.882Z,19.13
2022-12-13T10:59:56.539Z,18.30
2022-12-13T11:02:26.452Z,21.80
2022-12-13T11:04:53.184Z,20.50
2022-12-13T11:07:24.372Z,13.67
2022-12-13T11:09:52.645Z,17.40
2022-12-13T11:12:23.817Z,19.60
2022-12-13T11:14:56.403Z,18.50
2022-12-13T11:17:25.007Z,18.50
2022-12-13T11:19:53.101Z,17.33
2022-12-13T11:22:28.170Z,27.43
2022-12-13T11:25:01.474Z,20.10
2022-12-13T11:27:37.330Z,22.00
2022-12-13T11:30:10.264Z,17.50
2022-12-13T11:32:46.083Z,18.53
2022-12-13T11:35:12.684Z,18.70
2022-12-13T11:37:45.588Z,18.20
2022-12-13T11:40:15.626Z,19.23
2022-12-13T11:42:50.205Z,16.43
2022-12-13T11:45:22.964Z,23.13
2022-12-13T11:47:58.139Z,17.80
2022-12-13T11:50:33.098Z,17.07
2022-12-13T11:53:16.288Z,15.93
2022-12-13T11:55:45.239Z,13.80
2022-12-13T11:58:45.729Z,37.30
2022-12-13T12:01:12.600Z,15.33
2022-12-13T12:03:49.571Z,15.37
2022-12-13T12:06:42.697Z,16.83
2022-12-13T12:09:14.500Z,14.67
2022-12-13T12:11:53.054Z,14.63
2022-12-13T12:14:22.785Z,15.07
2022-12-13T12:16:52.306Z,14.87
2022-12-13T12:19:22.010Z,12.73
2022-12-13T12:22:13.277Z,13.67
2022-12-13T12:24:57.387Z,14.40
2022-12-13T12:27:28.677Z,12.77
2022-12-13T12:29:58.129Z,13.47
2022-12-13T12:32:32.035Z,14.13
2022-12-13T12:35:10.705Z,11.77
2022-12-13T12:37:38.035Z,17.17
2022-12-13T12:40:17.521Z,12.30
2022-12-13T12:43:14.497Z,14.57
2022-12-13T12:46:01.020Z,13.67
2022-12-13T12:48:58.603Z,17.93
2022-12-13T12:51:42.690Z,12.73
2022-12-13T12:54:35.379Z,11.40
2022-12-13T12:57:20.639Z,11.63
2022-12-13T13:00:02.325Z,13.93
2022-12-13T13:02:52.281Z,15.70
2022-12-13T13:08:59.290Z,20.37
2022-12-13T13:11:27.622Z,15.30
2022-12-13T13:14:07.074Z,14.40
2022-12-13T13:16:35.571Z,13.47
2022-12-13T13:19:05.685Z,14.47
2022-12-13T13:21:41.028Z,13.20
2022-12-13T13:24:07.826Z,13.87
2022-12-13T13:26:38.794Z,15.40
2022-12-13T13:29:32.260Z,12.00
2022-12-13T13:32:07.603Z,15.70
2022-12-13T13:34:36.788Z,12.93
2022-12-13T13:37:04.716Z,11.33
2022-12-13T13:39:31.356Z,12.43
2022-12-13T13:42:17.477Z,9.27
2022-12-13T13:44:50.515Z,14.10
2022-12-13T13:47:19.851Z,12.10
2022-12-13T13:49:46.410Z,10.40
2022-12-13T13:52:28.411Z,12.40
2022-12-13T13:54:54.970Z,11.57
2022-12-13T13:58:07.852Z,13.40
2022-12-13T14:00:31.847Z,12.47
2022-12-13T14:03:33.246Z,13.40
2022-12-13T14:06:01.123Z,11.60
2022-12-13T14:08:33.880Z,12.73
2022-12-13T14:11:13.702Z,12.43
2022-12-13T14:13:59.301Z,11.80
2022-12-13T14:16:49.278Z,12.27
2022-12-13T14:19:24.992Z,12.90
2022-12-13T14:22:17.884Z,12.10
2022-12-13T14:24:56.860Z,11.63
2022-12-13T14:27:41.969Z,9.17
2022-12-13T14:30:27.796Z,13.53
2022-12-13T14:32:56.782Z,11.40
2022-12-13T14:35:28.351Z,11.53
2022-12-13T14:37:56.910Z,11.37
2022-12-13T14:40:31.418Z,10.67
2022-12-13T14:42:58.541Z,11.67
2022-12-13T14:45:28.322Z,9.33
2022-12-13T14:47:58.499Z,11.67
2022-12-13T14:50:26.607Z,11.97
2022-12-13T14:52:54.051Z,9.50
2022-12-13T14:55:28.017Z,8.70
2022-12-13T14:57:55.882Z,11.37
2022-12-13T15:00:25.968Z,11.27
2022-12-13T15:02:54.071Z,11.03
2022-12-13T15:05:28.809Z,9.37
2022-12-13T15:07:56.267Z,10.33
2022-12-13T15:10:38.948Z,12.57
2022-12-13T15:13:05.796Z,10.10
2022-12-13T15:15:34.712Z,10.43
2022-12-13T15:18:10.732Z,10.87
2022-12-13T15:20:47.965Z,10.67
2022-12-13T15:23:20.961Z,10.30
2022-12-13T15:26:00.989Z,9.93
2022-12-13T15:28:29.679Z,10.37
2022-12-13T15:30:57.999Z,7.73
2022-12-13T15:33:32.604Z,10.80
2022-12-13T15:36:04.316Z,10.50
2022-12-13T15:38:31.431Z,10.37
2022-12-13T15:40:58.430Z,10.37
2022-12-13T15:43:31.450Z,9.93
2022-12-13T15:45:58.226Z,10.87
2022-12-13T15:48:29.744Z,11.00
2022-12-13T15:51:30.054Z,11.47
2022-12-13T15:54:06.236Z,10.50
2022-12-13T15:56:36.895Z,10.43
2022-12-13T15:59:04.587Z,12.23
2022-12-13T16:01:33.448Z,12.17
2022-12-13T16:04:03.707Z,9.33
2022-12-13T16:06:32.799Z,10.63
2022-12-13T16:09:01.406Z,9.53
2022-12-13T16:11:36.035Z,10.93
2022-12-13T16:14:25.850Z,10.43
2022-12-13T16:16:53.651Z,11.07
2022-12-13T16:19:20.523Z,11.10
2022-12-13T16:21:47.312Z,11.37
2022-12-13T16:24:14.016Z,10.90
2022-12-13T16:26:44.125Z,9.70
2022-12-13T16:29:13.379Z,9.67
2022-12-13T16:31:40.103Z,11.37
2022-12-13T16:34:07.192Z,8.77
2022-12-13T16:36:34.281Z,11.30
2022-12-13T16:39:00.970Z,11.90
2022-12-13T16:41:27.922Z,9.40
2022-12-13T16:44:01.666Z,10.90
2022-12-13T16:47:12.089Z,8.87
2022-12-13T16:49:19.977Z,12.93
2022-12-13T16:51:48.844Z,11.90
2022-12-13T16:54:16.276Z,12.83
2022-12-13T16:56:43.696Z,10.07
2022-12-13T16:59:14.335Z,12.13
2022-12-13T17:01:41.489Z,9.73
2022-12-13T17:04:15.007Z,10.47
2022-12-13T17:06:44.698Z,12.43
2022-12-13T17:09:11.626Z,12.10
2022-12-13T17:11:38.456Z,12.23
2022-12-13T17:14:05.840Z,9.60
2022-12-13T17:16:32.518Z,12.90
2022-12-13T17:18:59.133Z,11.43
2022-12-13T17:21:26.065Z,9.87
2022-12-13T17:23:59.690Z,12.27
2022-12-13T17:26:26.986Z,12.07
2022-12-13T17:28:53.908Z,12.03
2022-12-13T17:31:21.054Z,12.27
2022-12-13T17:33:47.761Z,11.90
2022-12-13T17:36:15.460Z,13.87
2022-12-13T17:38:46.571Z,12.37
2022-12-13T17:41:13.663Z,12.80
2022-12-13T17:43:41.171Z,12.27
2022-12-13T17:46:11.489Z,13.60
2022-12-13T17:48:41.171Z,13.47
2022-12-13T17:51:09.568Z,13.37
2022-12-13T17:53:36.372Z,13.13
2022-12-13T17:56:05.725Z,13.87
2022-12-13T17:58:32.860Z,12.53
2022-12-13T18:00:59.887Z,10.13
2022-12-13T18:03:26.984Z,11.83
2022-12-13T18:05:57.954Z,12.40
2022-12-13T18:08:25.234Z,13.23
2022-12-13T18:11:30.839Z,12.50
2022-12-13T18:13:45.595Z,11.63
2022-12-13T18:16:13.667Z,13.13
2022-12-13T18:18:40.425Z,12.57
2022-12-13T18:21:09.388Z,13.10
2022-12-13T18:23:36.441Z,14.70
2022-12-13T18:26:04.838Z,13.17
2022-12-13T18:28:32.327Z,13.40
2022-12-13T18:31:03.688Z,13.90
2022-12-13T18:33:31.595Z,13.23
2022-12-13T18:35:58.339Z,12.83
2022-12-13T18:38:30.428Z,12.70
2022-12-13T18:41:07.991Z,14.43
2022-12-13T18:43:34.710Z,10.17
2022-12-13T18:46:02.638Z,13.77
2022-12-13T18:48:29.608Z,13.27
2022-12-13T18:50:58.431Z,13.50
2022-12-13T18:53:25.479Z,13.80
2022-12-13T18:55:52.430Z,11.70
2022-12-13T18:58:19.115Z,13.63
2022-12-13T19:00:45.889Z,15.03
2022-12-13T19:03:12.659Z,14.83
2022-12-13T19:05:39.339Z,13.43
2022-12-13T19:08:06.131Z,11.83
2022-12-13T19:10:32.936Z,14.23
2022-12-13T19:12:59.672Z,14.83
2022-12-13T19:15:27.680Z,13.40
2022-12-13T19:17:54.404Z,13.07
2022-12-13T19:20:21.389Z,13.67
2022-12-13T19:22:48.306Z,13.40
2022-12-13T19:25:17.029Z,13.30
2022-12-13T19:27:46.792Z,14.60
2022-12-13T19:30:13.592Z,15.23
2022-12-13T19:32:40.449Z,13.73
2022-12-13T19:35:07.262Z,12.93
2022-12-13T19:37:34.940Z,13.50
2022-12-13T19:40:01.980Z,13.77
2022-12-13T19:42:28.680Z,12.93
2022-12-13T19:44:55.853Z,12.43
2022-12-13T19:47:22.495Z,12.63
2022-12-13T19:49:49.118Z,14.27
2022-12-13T19:52:15.790Z,13.90
2022-12-13T19:54:42.618Z,12.30
2022-12-13T19:57:09.236Z,12.97
2022-12-13T19:59:35.976Z,14.33
2022-12-13T20:02:03.063Z,10.50
2022-12-13T20:04:30.466Z,12.40
2022-12-13T20:06:58.042Z,12.67
2022-12-13T20:09:26.032Z,12.60
2022-12-13T20:11:53.343Z,13.20
2022-12-13T20:14:20.100Z,13.67
2022-12-13T20:16:46.774Z,12.03
2022-12-13T20:19:14.842Z,12.80
2022-12-13T20:21:41.529Z,12.20
2022-12-13T20:24:08.303Z,12.63
2022-12-13T20:26:35.106Z,13.33
2022-12-13T20:29:02.477Z,12.53
2022-12-13T20:31:30.309Z,12.23
2022-12-13T20:34:02.444Z,10.40
2022-12-13T20:36:31.335Z,12.57
2022-12-13T20:38:59.565Z,9.17
2022-12-13T20:41:30.519Z,11.67
2022-12-13T20:43:57.966Z,11.27
2022-12-13T20:46:25.122Z,8.37
2022-12-13T20:48:52.100Z,12.37
2022-12-13T20:51:20.220Z,11.30
2022-12-13T20:53:48.076Z,11.47
2022-12-13T20:56:16.026Z,11.97
2022-12-13T20:58:42.702Z,11.80
2022-12-13T21:01:13.710Z,13.03
2022-12-13T21:03:40.419Z,12.00
2022-12-13T21:06:07.102Z,9.37
2022-12-13T21:08:51.931Z,11.17
2022-12-13T21:11:24.955Z,11.40
2022-12-13T21:13:53.169Z,9.67
2022-12-13T21:16:20.271Z,10.10
2022-12-13T21:18:47.061Z,10.80
2022-12-13T21:21:13.708Z,9.53
2022-12-13T21:23:40.364Z,11.20
2022-12-13T21:26:07.288Z,11.90
2022-12-13T21:28:34.110Z,10.87
2022-12-13T21:31:03.612Z,9.83
2022-12-13T21:33:30.720Z,10.80
2022-12-13T21:35:57.392Z,9.90
2022-12-13T21:38:24.072Z,11.17
2022-12-13T21:40:50.774Z,10.60
2022-12-13T21:43:17.797Z,10.83
2022-12-13T21:45:44.536Z,9.40
2022-12-13T21:48:11.253Z,11.80
2022-12-13T21:50:38.046Z,9.07
2022-12-13T21:53:05.017Z,10.33
2022-12-13T21:55:40.195Z,10.10
2022-12-13T21:58:27.876Z,10.70
2022-12-13T22:00:54.743Z,10.27
2022-12-13T22:03:21.443Z,10.13
2022-12-13T22:05:48.099Z,6.73
2022-12-13T22:08:14.740Z,6.93
2022-12-13T22:11:01.415Z,10.63
2022-12-13T22:13:28.078Z,8.60
2022-12-13T22:15:54.758Z,8.77
2022-12-13T22:18:21.444Z,8.73
2022-12-13T22:20:55.320Z,10.53
2022-12-13T22:23:22.019Z,9.80
2022-12-13T22:25:48.696Z,11.43
2022-12-13T22:28:15.460Z,10.70
2022-12-13T22:30:42.225Z,8.00
2022-12-13T22:33:09.022Z,10.70
2022-12-13T22:35:37.438Z,10.77
2022-12-13T22:38:04.066Z,9.47
2022-12-13T22:40:32.081Z,11.20
2022-12-13T22:42:58.712Z,10.87
2022-12-13T22:45:26.043Z,7.80
2022-12-13T22:47:52.670Z,10.63
2022-12-13T22:50:20.787Z,9.47
2022-12-13T22:52:47.468Z,9.47
2022-12-13T22:55:14.225Z,9.17
2022-12-13T22:57:41.259Z,10.27
2022-12-13T23:00:10.205Z,9.83
2022-12-13T23:02:37.230Z,8.10
2022-12-13T23:05:04.076Z,11.33
2022-12-13T23:07:30.928Z,9.77
2022-12-13T23:09:57.536Z,11.80
2022-12-13T23:12:42.800Z,10.70
2022-12-13T23:15:09.882Z,10.07
2022-12-13T23:17:36.469Z,8.57
2022-12-13T23:20:04.450Z,8.57
2022-12-13T23:22:31.192Z,9.50
2022-12-13T23:24:57.812Z,8.70
2022-12-13T23:27:24.466Z,9.47
2022-12-13T23:29:51.258Z,10.60
2022-12-13T23:32:17.943Z,10.73
2022-12-13T23:34:44.602Z,11.00
2022-12-13T23:37:11.556Z,10.57
2022-12-13T23:39:38.199Z,10.60
2022-12-13T23:42:04.900Z,10.00
2022-12-13T23:44:31.546Z,11.13
2022-12-13T23:46:58.376Z,9.30
2022-12-13T23:49:25.041Z,11.07
2022-12-13T23:51:51.661Z,10.87
2022-12-13T23:54:20.267Z,6.80
2022-12-13T23:56:47.580Z,10.00
2022-12-13T23:59:15.981Z,10.33
